Opdyke, IL (62872)

10:54 PM CST del 23 novembre 2014 (GMT -0600)
Bluford | Change Station
CLOSE
Current Station
Stazione meteo personale
Location: Bluford, IL
Altitudine: 515 ft
Stazioni meteo nelle vicinanze
Avvisi attivi: Wind Advisory

Alt. 515 ft 38.32 °N, 88.74 °W | Updated 9 minutes ago

Coperto
Coperto
55.4 °F
Sembra 55.4 °F
N
4.0
Vento Variabile Vento da SSO
Gusts 14.0 mph

Oggi
Massima -- | Minima -- °F
--% Possibilità di precip.
Ieri
Massima -- | Minima -- °F
Precip. -- in
6:44 AM 4:37 PM
Luna crescente, 3% visible
Pressione 29.29 in
Visibilità 10.0 miglia
Nuvole Coperto 500 ft
Punto di rugiada 54 °F
Umidità 95%
Piovosità 0.86 in
Spessore del manto nevoso Non disponibile.
Raggi UV 0 fuori da 12
Polline .30 fuori da 12
Qualità dell'aria Non disponibile.
Flu Activity Non disponibile.
METAR KMVN 240435Z AUTO 21012KT 10SM OVC005 13/11 A2929 RMK AO1

More Conditions Fewer Conditions

Pressione 29.29 in
Visibilità 10.0 miglia
Nuvole Coperto 500 ft
Punto di rugiada 54 °F
Umidità 95%
Piovosità 0.86 in
Spessore del manto nevoso Non disponibile.
Raggi UV 0 fuori da 12
Polline .30 fuori da 12
Qualità dell'aria Non disponibile.
Flu Activity Non disponibile.
METAR KMVN 240435Z AUTO 21012KT 10SM OVC005 13/11 A2929 RMK AO1

More Conditions Fewer Conditions

10-Day Weather Forecast

Almanac

Astronomia

Nov. 23, 2014 Alba Tramonto
Ora attuale
Crepuscolo civile
Crepuscolo nautico
Crepuscolo astronomico
Luna
Estensione della luce visibile
Lunghezza del giorno
Tomorrow will be .
, % of the Moon is Illuminated

Gli estremi di oggi

State Highs State Lows

Community

WunderPhotos

Upload Photos

1,773,267 foto caricate!

WunderBlogs® & News

Nearby

Qualità dell'aria

  Qualità dell'aria Indice AQ Inquinante
Not available.

Profondità neve

Stazione Profondità Altitudine

Attività sismica

Città  Distanza Mag. Data & Ora
Minimo Magnitudo Mostrato è 2.5.

Temperature delle acque costiere

Località Temperatura

Stazioni meteo nelle vicinanze